LYBE/BEG METAR and TAF weather

Enter ICAO airport designator
Station Type Date Time Source
LYBE METAR 2019/09/20 20:00 UTC NOAA

LYBE 202000Z 36003KT CAVOK 11/02 Q1027 NOSIG


Station Type Date Time Source
LYBE Decoded METAR 2019/09/20 20:00 UTC NOAA

Beograd / Surcin, Serbia and Montenegro (LYBE) 44-49N 020-17E 99M
Sep 20, 2019 - 04:00 PM EDT / 2019.09.20 2000 UTC
Wind: from the N (360 degrees) at 3 MPH (3 KT):0
Visibility: greater than 7 mile(s):0
Temperature: 51 F (11 C)
Dew Point: 35 F (2 C)
Relative Humidity: 53%
Pressure (altimeter): 30.33 in. Hg (1027 hPa)
ob: LYBE 202000Z 36003KT CAVOK 11/02 Q1027 NOSIG
cycle: 20

Station Type Date Time Source
LYBE TAF 2019/09/20 18:21 UTC NOAA

TAF LYBE 201700Z 2018/2118 04005KT CAVOK TX22/2113Z TN04/2104Z

Example: see airport list